sensor_id;sensor_type;location;lat;lon;timestamp;P1;P2;P0
35654;PMS1003;21773;50.010;19.972;2022-08-01T00:00:42;19.60;19.40;18.00
35654;PMS1003;21773;50.010;19.972;2022-08-01T00:03:45;20.00;18.60;18.00
35654;PMS1003;21773;50.010;19.972;2022-08-01T00:06:49;19.75;18.50;18.50
35654;PMS1003;21773;50.010;19.972;2022-08-01T00:09:53;19.20;19.20;17.40
35654;PMS1003;21773;50.010;19.972;2022-08-01T00:12:58;20.00;18.60;17.00
35654;PMS1003;21773;50.010;19.972;2022-08-01T00:16:01;16.00;15.00;14.00
35654;PMS1003;21773;50.010;19.972;2022-08-01T00:19:04;16.40;16.40;15.00
35654;PMS1003;21773;50.010;19.972;2022-08-01T00:22:08;18.00;17.00;16.00
35654;PMS1003;21773;50.010;19.972;2022-08-01T00:25:11;18.75;17.00;16.00
35654;PMS1003;21773;50.010;19.972;2022-08-01T00:28:16;16.67;16.33;15.33
35654;PMS1003;21773;50.010;19.972;2022-08-01T00:31:19;19.00;18.60;18.00
35654;PMS1003;21773;50.010;19.972;2022-08-01T00:34:22;19.00;17.00;16.00
35654;PMS1003;21773;50.010;19.972;2022-08-01T00:37:26;16.00;15.40;15.00
35654;PMS1003;21773;50.010;19.972;2022-08-01T00:40:29;18.00;18.00;17.00
35654;PMS1003;21773;50.010;19.972;2022-08-01T00:43:34;18.40;16.60;15.00
35654;PMS1003;21773;50.010;19.972;2022-08-01T00:46:37;18.00;16.40;15.00
35654;PMS1003;21773;50.010;19.972;2022-08-01T00:49:40;20.60;20.00;17.60
35654;PMS1003;21773;50.010;19.972;2022-08-01T00:52:44;20.00;18.00;16.00
35654;PMS1003;21773;50.010;19.972;2022-08-01T00:55:52;18.00;18.00;17.00
35654;PMS1003;21773;50.010;19.972;2022-08-01T00:58:57;18.40;18.40;17.40
35654;PMS1003;21773;50.010;19.972;2022-08-01T01:02:02;16.25;16.25;15.25
35654;PMS1003;21773;50.010;19.972;2022-08-01T01:05:15;19.00;18.00;16.33
35654;PMS1003;21773;50.010;19.972;2022-08-01T01:08:21;17.20;17.20;16.00
35654;PMS1003;21773;50.010;19.972;2022-08-01T01:11:31;20.25;18.75;18.00
35654;PMS1003;21773;50.010;19.972;2022-08-01T01:14:51;20.00;19.00;17.60
35654;PMS1003;21773;50.010;19.972;2022-08-01T01:18:00;19.00;18.20;15.80
35654;PMS1003;21773;50.010;19.972;2022-08-01T01:21:07;13.60;13.60;12.60
35654;PMS1003;21773;50.010;19.972;2022-08-01T01:24:27;15.00;15.00;14.00
35654;PMS1003;21773;50.010;19.972;2022-08-01T01:27:42;15.75;15.00;14.00
35654;PMS1003;21773;50.010;19.972;2022-08-01T01:30:54;16.00;16.00;15.00
35654;PMS1003;21773;50.010;19.972;2022-08-01T01:34:00;15.00;14.00;13.00
35654;PMS1003;21773;50.010;19.972;2022-08-01T01:37:07;16.40;15.40;14.60
35654;PMS1003;21773;50.010;19.972;2022-08-01T01:40:15;13.60;13.00;12.60
35654;PMS1003;21773;50.010;19.972;2022-08-01T01:43:20;16.00;15.50;15.00
35654;PMS1003;21773;50.010;19.972;2022-08-01T01:46:35;16.60;16.00;15.00
35654;PMS1003;21773;50.010;19.972;2022-08-01T01:49:40;14.20;14.20;13.80
35654;PMS1003;21773;50.010;19.972;2022-08-01T01:52:48;18.00;17.00;15.67
35654;PMS1003;21773;50.010;19.972;2022-08-01T01:55:53;15.00;15.00;13.00
35654;PMS1003;21773;50.010;19.972;2022-08-01T01:58:59;16.00;16.00;16.00
35654;PMS1003;21773;50.010;19.972;2022-08-01T02:02:06;22.60;22.40;20.00
35654;PMS1003;21773;50.010;19.972;2022-08-01T02:05:11;16.80;16.60;15.60
35654;PMS1003;21773;50.010;19.972;2022-08-01T02:08:16;6.60;6.60;5.20
35654;PMS1003;21773;50.010;19.972;2022-08-01T02:11:21;18.60;18.60;17.60
35654;PMS1003;21773;50.010;19.972;2022-08-01T02:14:25;22.00;20.00;19.00
35654;PMS1003;21773;50.010;19.972;2022-08-01T02:17:31;23.50;22.25;20.00
35654;PMS1003;21773;50.010;19.972;2022-08-01T02:20:35;24.00;23.00;20.60
35654;PMS1003;21773;50.010;19.972;2022-08-01T02:23:40;22.00;21.00;20.00
35654;PMS1003;21773;50.010;19.972;2022-08-01T02:26:46;19.20;19.20;18.80
35654;PMS1003;21773;50.010;19.972;2022-08-01T02:29:53;21.40;21.00;19.00
35654;PMS1003;21773;50.010;19.972;2022-08-01T02:33:04;17.00;17.00;15.00
35654;PMS1003;21773;50.010;19.972;2022-08-01T02:36:16;18.00;18.00;16.60
35654;PMS1003;21773;50.010;19.972;2022-08-01T02:39:33;23.00;22.00;20.50
35654;PMS1003;21773;50.010;19.972;2022-08-01T02:42:41;18.00;18.00;17.00
35654;PMS1003;21773;50.010;19.972;2022-08-01T02:45:49;24.40;23.40;21.00
35654;PMS1003;21773;50.010;19.972;2022-08-01T02:48:58;22.00;20.60;18.20
35654;PMS1003;21773;50.010;19.972;2022-08-01T02:52:06;24.60;22.60;20.00
35654;PMS1003;21773;50.010;19.972;2022-08-01T02:55:13;21.00;19.00;18.20
35654;PMS1003;21773;50.010;19.972;2022-08-01T02:58:18;26.00;24.40;21.40
35654;PMS1003;21773;50.010;19.972;2022-08-01T03:01:30;23.20;22.40;20.20
35654;PMS1003;21773;50.010;19.972;2022-08-01T03:04:38;18.00;16.60;15.60
35654;PMS1003;21773;50.010;19.972;2022-08-01T03:07:44;19.75;18.75;17.75
35654;PMS1003;21773;50.010;19.972;2022-08-01T03:10:49;22.00;21.00;19.00
35654;PMS1003;21773;50.010;19.972;2022-08-01T03:13:55;22.40;22.00;20.00
35654;PMS1003;21773;50.010;19.972;2022-08-01T03:17:02;20.67;18.67;17.00
35654;PMS1003;21773;50.010;19.972;2022-08-01T03:20:09;23.40;20.80;18.60
35654;PMS1003;21773;50.010;19.972;2022-08-01T03:23:15;21.80;20.80;19.80
35654;PMS1003;21773;50.010;19.972;2022-08-01T03:26:25;17.20;17.00;16.00
35654;PMS1003;21773;50.010;19.972;2022-08-01T03:29:31;28.50;26.00;23.00
35654;PMS1003;21773;50.010;19.972;2022-08-01T03:32:36;26.40;24.60;22.00
35654;PMS1003;21773;50.010;19.972;2022-08-01T03:35:46;20.00;20.00;18.33
35654;PMS1003;21773;50.010;19.972;2022-08-01T03:38:53;25.00;23.00;21.00
35654;PMS1003;21773;50.010;19.972;2022-08-01T03:42:05;24.00;22.00;20.00
35654;PMS1003;21773;50.010;19.972;2022-08-01T03:45:14;22.40;22.00;20.00
35654;PMS1003;21773;50.010;19.972;2022-08-01T03:48:27;26.00;25.00;22.00
35654;PMS1003;21773;50.010;19.972;2022-08-01T03:51:34;30.25;29.00;24.00
35654;PMS1003;21773;50.010;19.972;2022-08-01T03:54:41;32.40;30.00;25.40
35654;PMS1003;21773;50.010;19.972;2022-08-01T03:57:49;26.40;24.80;22.00
35654;PMS1003;21773;50.010;19.972;2022-08-01T04:00:54;35.80;31.60;26.00
35654;PMS1003;21773;50.010;19.972;2022-08-01T04:03:58;32.50;30.00;24.50
35654;PMS1003;21773;50.010;19.972;2022-08-01T04:07:04;32.40;29.40;24.00
35654;PMS1003;21773;50.010;19.972;2022-08-01T04:10:08;30.00;29.00;24.00
35654;PMS1003;21773;50.010;19.972;2022-08-01T04:13:12;25.00;24.00;21.00
35654;PMS1003;21773;50.010;19.972;2022-08-01T04:16:15;30.60;29.60;24.60
35654;PMS1003;21773;50.010;19.972;2022-08-01T04:19:18;29.25;29.25;24.25
35654;PMS1003;21773;50.010;19.972;2022-08-01T04:22:23;27.00;26.00;22.25
35654;PMS1003;21773;50.010;19.972;2022-08-01T04:25:28;35.40;32.40;27.40
35654;PMS1003;21773;50.010;19.972;2022-08-01T04:28:36;30.25;29.00;24.00
35654;PMS1003;21773;50.010;19.972;2022-08-01T04:31:42;25.60;24.60;21.60
35654;PMS1003;21773;50.010;19.972;2022-08-01T04:34:48;25.67;25.67;22.00
35654;PMS1003;21773;50.010;19.972;2022-08-01T04:37:54;24.80;24.40;21.40
35654;PMS1003;21773;50.010;19.972;2022-08-01T04:40:59;29.75;27.75;23.00
35654;PMS1003;21773;50.010;19.972;2022-08-01T04:44:10;32.60;31.40;26.00
35654;PMS1003;21773;50.010;19.972;2022-08-01T04:47:14;34.80;32.00;26.20
35654;PMS1003;21773;50.010;19.972;2022-08-01T04:50:17;34.25;31.00;26.00
35654;PMS1003;21773;50.010;19.972;2022-08-01T04:53:25;43.80;38.40;31.00
35654;PMS1003;21773;50.010;19.972;2022-08-01T04:56:29;40.00;35.00;28.40
35654;PMS1003;21773;50.010;19.972;2022-08-01T04:59:38;35.60;32.60;27.00
35654;PMS1003;21773;50.010;19.972;2022-08-01T05:02:45;33.00;31.60;26.60
35654;PMS1003;21773;50.010;19.972;2022-08-01T05:05:49;38.33;34.33;28.00
35654;PMS1003;21773;50.010;19.972;2022-08-01T05:08:53;36.00;33.00;27.40
35654;PMS1003;21773;50.010;19.972;2022-08-01T05:11:57;35.50;31.50;26.00
35654;PMS1003;21773;50.010;19.972;2022-08-01T05:15:01;44.75;37.75;30.00
35654;PMS1003;21773;50.010;19.972;2022-08-01T05:18:04;41.75;36.00;29.00
35654;PMS1003;21773;50.010;19.972;2022-08-01T05:21:10;38.20;33.20;28.00
35654;PMS1003;21773;50.010;19.972;2022-08-01T05:24:14;25.00;23.80;20.80
35654;PMS1003;21773;50.010;19.972;2022-08-01T05:27:18;31.00;29.60;24.00
35654;PMS1003;21773;50.010;19.972;2022-08-01T05:30:22;22.20;22.20;20.00
35654;PMS1003;21773;50.010;19.972;2022-08-01T05:33:25;25.40;24.00;21.00
35654;PMS1003;21773;50.010;19.972;2022-08-01T05:36:29;22.00;21.00;18.80
35654;PMS1003;21773;50.010;19.972;2022-08-01T05:39:34;23.75;22.00;19.00
35654;PMS1003;21773;50.010;19.972;2022-08-01T05:42:37;28.25;28.00;23.00
35654;PMS1003;21773;50.010;19.972;2022-08-01T05:45:40;29.50;28.50;23.50
35654;PMS1003;21773;50.010;19.972;2022-08-01T05:48:44;27.40;26.40;22.40
35654;PMS1003;21773;50.010;19.972;2022-08-01T05:51:47;22.50;22.00;20.00
35654;PMS1003;21773;50.010;19.972;2022-08-01T05:54:52;27.40;25.00;22.00
35654;PMS1003;21773;50.010;19.972;2022-08-01T05:57:55;25.40;23.60;21.60
35654;PMS1003;21773;50.010;19.972;2022-08-01T06:00:59;24.00;21.60;20.00
35654;PMS1003;21773;50.010;19.972;2022-08-01T06:04:02;26.00;25.40;22.40
35654;PMS1003;21773;50.010;19.972;2022-08-01T06:07:06;19.50;17.50;16.50
35654;PMS1003;21773;50.010;19.972;2022-08-01T06:10:10;20.00;20.00;18.40
35654;PMS1003;21773;50.010;19.972;2022-08-01T06:13:14;19.40;18.60;17.40
35654;PMS1003;21773;50.010;19.972;2022-08-01T06:16:17;23.60;23.60;20.60
35654;PMS1003;21773;50.010;19.972;2022-08-01T06:19:21;21.50;20.50;19.00
35654;PMS1003;21773;50.010;19.972;2022-08-01T06:22:24;18.33;18.33;18.00
35654;PMS1003;21773;50.010;19.972;2022-08-01T06:25:29;20.00;19.60;18.00
35654;PMS1003;21773;50.010;19.972;2022-08-01T06:28:33;34.00;30.00;24.00
35654;PMS1003;21773;50.010;19.972;2022-08-01T06:31:36;22.00;21.00;19.40
35654;PMS1003;21773;50.010;19.972;2022-08-01T06:34:40;23.40;23.00;21.40
35654;PMS1003;21773;50.010;19.972;2022-08-01T06:37:43;19.60;19.00;18.00
35654;PMS1003;21773;50.010;19.972;2022-08-01T06:40:50;17.00;17.00;15.20
35654;PMS1003;21773;50.010;19.972;2022-08-01T06:43:53;15.25;15.25;13.50
35654;PMS1003;21773;50.010;19.972;2022-08-01T06:46:56;15.20;14.00;13.20
35654;PMS1003;21773;50.010;19.972;2022-08-01T06:50:00;16.80;15.20;14.20
35654;PMS1003;21773;50.010;19.972;2022-08-01T06:53:04;25.40;25.00;22.40
35654;PMS1003;21773;50.010;19.972;2022-08-01T06:56:08;20.60;20.40;19.40
35654;PMS1003;21773;50.010;19.972;2022-08-01T06:59:12;15.60;15.00;13.60
35654;PMS1003;21773;50.010;19.972;2022-08-01T07:02:15;16.80;16.60;15.20
35654;PMS1003;21773;50.010;19.972;2022-08-01T07:05:18;10.75;10.25;9.75
35654;PMS1003;21773;50.010;19.972;2022-08-01T07:08:22;16.00;15.60;15.00
35654;PMS1003;21773;50.010;19.972;2022-08-01T07:11:27;17.00;16.00;14.40
35654;PMS1003;21773;50.010;19.972;2022-08-01T07:14:31;18.40;18.00;17.80
35654;PMS1003;21773;50.010;19.972;2022-08-01T07:17:36;17.00;16.00;15.00
35654;PMS1003;21773;50.010;19.972;2022-08-01T07:20:41;17.00;16.00;15.00
35654;PMS1003;21773;50.010;19.972;2022-08-01T07:23:53;16.40;15.00;14.20
35654;PMS1003;21773;50.010;19.972;2022-08-01T07:26:58;15.40;14.40;14.00
35654;PMS1003;21773;50.010;19.972;2022-08-01T07:30:21;19.00;17.00;16.40
35654;PMS1003;21773;50.010;19.972;2022-08-01T07:33:25;16.50;16.00;15.00
35654;PMS1003;21773;50.010;19.972;2022-08-01T07:36:48;14.00;14.00;13.00
35654;PMS1003;21773;50.010;19.972;2022-08-01T07:39:52;14.00;13.80;13.60
35654;PMS1003;21773;50.010;19.972;2022-08-01T07:42:57;16.00;16.00;15.00
35654;PMS1003;21773;50.010;19.972;2022-08-01T07:46:00;16.60;16.60;16.20
35654;PMS1003;21773;50.010;19.972;2022-08-01T07:49:03;16.00;15.00;14.00
35654;PMS1003;21773;50.010;19.972;2022-08-01T07:52:07;12.40;12.00;11.00
35654;PMS1003;21773;50.010;19.972;2022-08-01T07:55:11;15.00;14.00;13.60
35654;PMS1003;21773;50.010;19.972;2022-08-01T07:58:18;15.20;14.60;13.60
35654;PMS1003;21773;50.010;19.972;2022-08-01T08:01:22;14.00;13.80;13.00
35654;PMS1003;21773;50.010;19.972;2022-08-01T08:04:25;13.00;12.60;12.00
35654;PMS1003;21773;50.010;19.972;2022-08-01T08:07:29;14.50;13.50;12.50
35654;PMS1003;21773;50.010;19.972;2022-08-01T08:10:33;16.00;14.40;13.40
35654;PMS1003;21773;50.010;19.972;2022-08-01T08:13:37;12.50;12.00;11.75
35654;PMS1003;21773;50.010;19.972;2022-08-01T08:16:41;12.60;12.40;11.60
35654;PMS1003;21773;50.010;19.972;2022-08-01T08:19:44;12.00;11.50;11.00
35654;PMS1003;21773;50.010;19.972;2022-08-01T08:22:48;11.00;11.00;10.00
35654;PMS1003;21773;50.010;19.972;2022-08-01T08:25:51;10.00;10.00;10.00
35654;PMS1003;21773;50.010;19.972;2022-08-01T08:28:56;14.00;12.80;11.20
35654;PMS1003;21773;50.010;19.972;2022-08-01T08:32:00;13.00;13.00;12.60
35654;PMS1003;21773;50.010;19.972;2022-08-01T08:35:04;11.00;11.00;10.20
35654;PMS1003;21773;50.010;19.972;2022-08-01T08:38:08;12.00;11.00;10.00
35654;PMS1003;21773;50.010;19.972;2022-08-01T08:41:15;13.00;13.00;12.00
35654;PMS1003;21773;50.010;19.972;2022-08-01T08:44:23;11.60;11.60;10.60
35654;PMS1003;21773;50.010;19.972;2022-08-01T08:47:27;14.00;14.00;13.40
35654;PMS1003;21773;50.010;19.972;2022-08-01T08:50:35;10.00;10.00;10.00
35654;PMS1003;21773;50.010;19.972;2022-08-01T08:53:40;12.00;11.50;11.00
35654;PMS1003;21773;50.010;19.972;2022-08-01T08:56:47;14.00;13.60;13.00
35654;PMS1003;21773;50.010;19.972;2022-08-01T08:59:55;10.25;10.00;10.00
35654;PMS1003;21773;50.010;19.972;2022-08-01T09:02:59;11.25;11.00;10.00
35654;PMS1003;21773;50.010;19.972;2022-08-01T09:06:03;8.60;8.60;8.00
35654;PMS1003;21773;50.010;19.972;2022-08-01T09:09:06;10.50;10.50;10.00
35654;PMS1003;21773;50.010;19.972;2022-08-01T09:12:11;9.25;8.50;8.25
35654;PMS1003;21773;50.010;19.972;2022-08-01T09:15:20;10.00;10.00;10.00
35654;PMS1003;21773;50.010;19.972;2022-08-01T09:18:40;10.00;10.00;9.00
35654;PMS1003;21773;50.010;19.972;2022-08-01T09:21:55;12.00;11.60;11.00
35654;PMS1003;21773;50.010;19.972;2022-08-01T09:25:01;6.60;6.40;6.00
35654;PMS1003;21773;50.010;19.972;2022-08-01T09:28:06;9.75;9.75;9.00
35654;PMS1003;21773;50.010;19.972;2022-08-01T09:31:12;8.00;7.00;6.80
35654;PMS1003;21773;50.010;19.972;2022-08-01T09:34:24;9.00;9.00;9.00
35654;PMS1003;21773;50.010;19.972;2022-08-01T09:37:29;9.00;7.80;7.00
35654;PMS1003;21773;50.010;19.972;2022-08-01T09:40:45;6.00;6.00;6.00
35654;PMS1003;21773;50.010;19.972;2022-08-01T09:43:53;7.00;7.00;7.00
35654;PMS1003;21773;50.010;19.972;2022-08-01T09:46:57;9.00;9.00;9.00
35654;PMS1003;21773;50.010;19.972;2022-08-01T09:50:08;8.00;7.00;7.00
35654;PMS1003;21773;50.010;19.972;2022-08-01T09:53:12;7.00;7.00;6.00
35654;PMS1003;21773;50.010;19.972;2022-08-01T09:56:35;8.00;8.00;7.00
35654;PMS1003;21773;50.010;19.972;2022-08-01T09:59:40;7.20;7.20;7.00
35654;PMS1003;21773;50.010;19.972;2022-08-01T10:03:00;6.40;6.40;6.40
35654;PMS1003;21773;50.010;19.972;2022-08-01T10:06:22;6.00;6.00;5.60
35654;PMS1003;21773;50.010;19.972;2022-08-01T10:09:26;7.40;6.60;6.60
35654;PMS1003;21773;50.010;19.972;2022-08-01T10:12:42;6.00;6.00;6.00
35654;PMS1003;21773;50.010;19.972;2022-08-01T10:15:46;8.00;8.00;8.00
35654;PMS1003;21773;50.010;19.972;2022-08-01T10:18:51;8.00;7.00;7.00
35654;PMS1003;21773;50.010;19.972;2022-08-01T10:21:57;7.00;6.00;6.00
35654;PMS1003;21773;50.010;19.972;2022-08-01T10:25:02;9.25;8.25;8.00
35654;PMS1003;21773;50.010;19.972;2022-08-01T10:28:10;8.00;7.00;7.00
35654;PMS1003;21773;50.010;19.972;2022-08-01T10:31:18;8.00;8.00;7.25
35654;PMS1003;21773;50.010;19.972;2022-08-01T10:34:33;8.40;8.00;7.60
35654;PMS1003;21773;50.010;19.972;2022-08-01T10:37:38;5.40;5.40;5.40
35654;PMS1003;21773;50.010;19.972;2022-08-01T10:40:53;8.00;7.00;7.00
35654;PMS1003;21773;50.010;19.972;2022-08-01T10:43:58;7.33;7.33;6.33
35654;PMS1003;21773;50.010;19.972;2022-08-01T10:47:06;7.00;7.00;6.60
35654;PMS1003;21773;50.010;19.972;2022-08-01T10:50:15;8.00;8.00;7.40
35654;PMS1003;21773;50.010;19.972;2022-08-01T10:53:26;7.00;6.00;5.20
35654;PMS1003;21773;50.010;19.972;2022-08-01T10:56:43;6.40;6.00;6.00
35654;PMS1003;21773;50.010;19.972;2022-08-01T10:59:50;5.00;5.00;4.00
35654;PMS1003;21773;50.010;19.972;2022-08-01T11:03:03;6.00;6.00;6.00
35654;PMS1003;21773;50.010;19.972;2022-08-01T11:06:15;6.00;6.00;5.00
35654;PMS1003;21773;50.010;19.972;2022-08-01T11:09:23;6.00;6.00;5.50
35654;PMS1003;21773;50.010;19.972;2022-08-01T11:12:38;5.00;5.00;5.00
35654;PMS1003;21773;50.010;19.972;2022-08-01T11:15:44;5.00;5.00;4.20
35654;PMS1003;21773;50.010;19.972;2022-08-01T11:18:51;7.00;6.00;5.40
35654;PMS1003;21773;50.010;19.972;2022-08-01T11:21:59;7.00;7.00;6.60
35654;PMS1003;21773;50.010;19.972;2022-08-01T11:25:05;5.60;5.00;5.00
35654;PMS1003;21773;50.010;19.972;2022-08-01T11:28:17;7.00;6.00;5.25
35654;PMS1003;21773;50.010;19.972;2022-08-01T11:31:33;7.00;6.00;5.40
35654;PMS1003;21773;50.010;19.972;2022-08-01T11:34:53;8.00;8.00;8.00
35654;PMS1003;21773;50.010;19.972;2022-08-01T11:38:02;6.33;6.33;6.00
35654;PMS1003;21773;50.010;19.972;2022-08-01T11:41:26;5.20;5.20;5.20
35654;PMS1003;21773;50.010;19.972;2022-08-01T11:44:47;8.00;7.00;7.00
35654;PMS1003;21773;50.010;19.972;2022-08-01T11:47:52;6.00;5.20;5.20
35654;PMS1003;21773;50.010;19.972;2022-08-01T11:50:56;5.60;5.60;5.00
35654;PMS1003;21773;50.010;19.972;2022-08-01T11:54:04;6.80;6.00;6.00
35654;PMS1003;21773;50.010;19.972;2022-08-01T11:57:09;5.00;5.00;4.80
35654;PMS1003;21773;50.010;19.972;2022-08-01T12:00:15;6.00;5.80;5.80
35654;PMS1003;21773;50.010;19.972;2022-08-01T12:03:23;7.00;7.00;7.00
35654;PMS1003;21773;50.010;19.972;2022-08-01T12:06:35;6.00;6.00;6.00
35654;PMS1003;21773;50.010;19.972;2022-08-01T12:09:43;6.60;6.60;6.00
35654;PMS1003;21773;50.010;19.972;2022-08-01T12:12:48;6.00;5.00;5.00
35654;PMS1003;21773;50.010;19.972;2022-08-01T12:15:52;7.60;7.60;7.00
35654;PMS1003;21773;50.010;19.972;2022-08-01T12:18:58;7.40;7.00;7.00
35654;PMS1003;21773;50.010;19.972;2022-08-01T12:22:05;6.75;6.75;6.00
35654;PMS1003;21773;50.010;19.972;2022-08-01T12:25:12;6.00;6.00;5.60
35654;PMS1003;21773;50.010;19.972;2022-08-01T12:28:16;7.00;6.80;6.00
35654;PMS1003;21773;50.010;19.972;2022-08-01T12:31:30;10.40;10.00;9.40
35654;PMS1003;21773;50.010;19.972;2022-08-01T12:34:33;6.00;5.75;5.00
35654;PMS1003;21773;50.010;19.972;2022-08-01T12:37:37;7.00;7.00;6.00
35654;PMS1003;21773;50.010;19.972;2022-08-01T12:40:44;8.60;8.60;8.60
35654;PMS1003;21773;50.010;19.972;2022-08-01T12:43:54;9.00;8.25;8.00
35654;PMS1003;21773;50.010;19.972;2022-08-01T12:46:57;7.60;7.00;7.00
35654;PMS1003;21773;50.010;19.972;2022-08-01T12:50:02;6.80;6.00;6.00
35654;PMS1003;21773;50.010;19.972;2022-08-01T12:53:07;6.00;6.00;6.00
35654;PMS1003;21773;50.010;19.972;2022-08-01T12:56:18;8.50;8.50;8.00
35654;PMS1003;21773;50.010;19.972;2022-08-01T12:59:34;10.00;10.00;9.00
35654;PMS1003;21773;50.010;19.972;2022-08-01T13:02:38;8.60;8.00;8.00
35654;PMS1003;21773;50.010;19.972;2022-08-01T13:05:44;8.33;8.00;7.00
35654;PMS1003;21773;50.010;19.972;2022-08-01T13:08:48;6.80;6.00;6.00
35654;PMS1003;21773;50.010;19.972;2022-08-01T13:11:52;6.60;6.00;6.00
35654;PMS1003;21773;50.010;19.972;2022-08-01T13:15:18;10.00;9.00;8.00
35654;PMS1003;21773;50.010;19.972;2022-08-01T13:18:25;7.00;7.00;7.00
35654;PMS1003;21773;50.010;19.972;2022-08-01T13:21:30;7.00;7.00;6.33
35654;PMS1003;21773;50.010;19.972;2022-08-01T13:24:54;7.40;7.40;6.60
35654;PMS1003;21773;50.010;19.972;2022-08-01T13:28:16;7.60;7.00;7.00
35654;PMS1003;21773;50.010;19.972;2022-08-01T13:31:21;6.50;6.50;6.50
35654;PMS1003;21773;50.010;19.972;2022-08-01T13:34:36;8.00;8.00;8.00
35654;PMS1003;21773;50.010;19.972;2022-08-01T13:37:40;8.00;8.00;8.00
35654;PMS1003;21773;50.010;19.972;2022-08-01T13:40:44;8.00;8.00;7.00
35654;PMS1003;21773;50.010;19.972;2022-08-01T13:43:50;7.80;7.80;7.00
35654;PMS1003;21773;50.010;19.972;2022-08-01T13:47:01;9.00;8.00;7.00
35654;PMS1003;21773;50.010;19.972;2022-08-01T13:50:17;10.20;9.80;9.20
35654;PMS1003;21773;50.010;19.972;2022-08-01T13:53:20;8.60;8.60;8.00
35654;PMS1003;21773;50.010;19.972;2022-08-01T13:56:24;8.00;8.00;7.00
35654;PMS1003;21773;50.010;19.972;2022-08-01T13:59:30;9.00;9.00;9.00
35654;PMS1003;21773;50.010;19.972;2022-08-01T14:02:36;7.00;6.80;6.20
35654;PMS1003;21773;50.010;19.972;2022-08-01T14:05:39;8.80;8.80;7.20
35654;PMS1003;21773;50.010;19.972;2022-08-01T14:08:43;10.00;10.00;9.00
35654;PMS1003;21773;50.010;19.972;2022-08-01T14:11:48;10.00;10.00;9.40
35654;PMS1003;21773;50.010;19.972;2022-08-01T14:14:53;10.00;10.00;9.80
35654;PMS1003;21773;50.010;19.972;2022-08-01T14:17:56;11.40;11.00;10.40
35654;PMS1003;21773;50.010;19.972;2022-08-01T14:21:00;9.80;9.80;8.80
35654;PMS1003;21773;50.010;19.972;2022-08-01T14:24:06;13.25;12.50;12.00
35654;PMS1003;21773;50.010;19.972;2022-08-01T14:27:11;10.80;10.80;10.00
35654;PMS1003;21773;50.010;19.972;2022-08-01T14:30:15;10.00;10.00;9.00
35654;PMS1003;21773;50.010;19.972;2022-08-01T14:33:19;11.50;10.50;9.50
35654;PMS1003;21773;50.010;19.972;2022-08-01T14:36:22;11.00;10.40;9.80
35654;PMS1003;21773;50.010;19.972;2022-08-01T14:39:32;12.60;12.00;11.60
35654;PMS1003;21773;50.010;19.972;2022-08-01T14:42:35;12.80;12.00;11.00
35654;PMS1003;21773;50.010;19.972;2022-08-01T14:45:41;13.00;12.00;12.00
35654;PMS1003;21773;50.010;19.972;2022-08-01T14:48:45;13.00;13.00;12.00
35654;PMS1003;21773;50.010;19.972;2022-08-01T14:51:48;10.50;10.50;10.00
35654;PMS1003;21773;50.010;19.972;2022-08-01T14:54:51;11.00;11.00;10.00
35654;PMS1003;21773;50.010;19.972;2022-08-01T14:57:55;12.00;10.00;10.00
35654;PMS1003;21773;50.010;19.972;2022-08-01T15:01:00;12.00;12.00;11.25
35654;PMS1003;21773;50.010;19.972;2022-08-01T15:04:04;12.00;12.00;11.00
35654;PMS1003;21773;50.010;19.972;2022-08-01T15:07:10;9.40;9.40;9.00
35654;PMS1003;21773;50.010;19.972;2022-08-01T15:10:14;11.00;11.00;10.40
35654;PMS1003;21773;50.010;19.972;2022-08-01T15:13:17;13.40;13.40;12.00
35654;PMS1003;21773;50.010;19.972;2022-08-01T15:16:22;10.80;10.80;10.00
35654;PMS1003;21773;50.010;19.972;2022-08-01T15:19:26;12.40;12.40;11.40
35654;PMS1003;21773;50.010;19.972;2022-08-01T15:22:29;11.00;11.00;11.00
35654;PMS1003;21773;50.010;19.972;2022-08-01T15:25:33;12.00;11.50;10.50
35654;PMS1003;21773;50.010;19.972;2022-08-01T15:28:42;11.40;11.00;10.40
35654;PMS1003;21773;50.010;19.972;2022-08-01T15:31:47;13.25;12.25;12.00
35654;PMS1003;21773;50.010;19.972;2022-08-01T15:34:51;14.00;14.00;13.00
35654;PMS1003;21773;50.010;19.972;2022-08-01T15:37:55;12.50;12.50;11.50
35654;PMS1003;21773;50.010;19.972;2022-08-01T15:40:59;14.75;14.00;13.50
35654;PMS1003;21773;50.010;19.972;2022-08-01T15:44:02;12.00;12.00;12.00
35654;PMS1003;21773;50.010;19.972;2022-08-01T15:47:08;11.20;11.20;10.20
35654;PMS1003;21773;50.010;19.972;2022-08-01T15:50:11;11.20;11.20;11.20
35654;PMS1003;21773;50.010;19.972;2022-08-01T15:53:15;12.00;12.00;11.00
35654;PMS1003;21773;50.010;19.972;2022-08-01T15:56:18;12.00;12.00;11.40
35654;PMS1003;21773;50.010;19.972;2022-08-01T15:59:22;12.00;11.60;11.00
35654;PMS1003;21773;50.010;19.972;2022-08-01T16:02:26;11.40;11.40;10.60
35654;PMS1003;21773;50.010;19.972;2022-08-01T16:05:30;11.40;11.00;11.00
35654;PMS1003;21773;50.010;19.972;2022-08-01T16:08:33;13.00;12.40;12.40
35654;PMS1003;21773;50.010;19.972;2022-08-01T16:11:36;14.60;14.60;13.60
35654;PMS1003;21773;50.010;19.972;2022-08-01T16:14:45;12.20;11.60;11.40
35654;PMS1003;21773;50.010;19.972;2022-08-01T16:17:50;14.20;13.20;12.60
35654;PMS1003;21773;50.010;19.972;2022-08-01T16:20:53;13.50;13.50;13.00
35654;PMS1003;21773;50.010;19.972;2022-08-01T16:23:57;10.20;10.20;10.00
35654;PMS1003;21773;50.010;19.972;2022-08-01T16:27:01;14.20;13.40;13.00
35654;PMS1003;21773;50.010;19.972;2022-08-01T16:30:05;16.00;15.00;14.00
35654;PMS1003;21773;50.010;19.972;2022-08-01T16:33:10;12.00;12.00;11.40
35654;PMS1003;21773;50.010;19.972;2022-08-01T16:36:33;13.00;12.25;12.00
35654;PMS1003;21773;50.010;19.972;2022-08-01T16:39:37;12.60;12.60;11.60
35654;PMS1003;21773;50.010;19.972;2022-08-01T16:42:41;14.50;14.50;13.50
35654;PMS1003;21773;50.010;19.972;2022-08-01T16:45:45;16.50;15.50;15.00
35654;PMS1003;21773;50.010;19.972;2022-08-01T16:48:50;13.00;12.00;11.00
35654;PMS1003;21773;50.010;19.972;2022-08-01T16:51:54;12.60;12.00;11.40
35654;PMS1003;21773;50.010;19.972;2022-08-01T16:54:58;15.20;15.00;14.20
35654;PMS1003;21773;50.010;19.972;2022-08-01T16:58:01;11.80;11.20;10.80
35654;PMS1003;21773;50.010;19.972;2022-08-01T17:01:04;13.60;12.60;11.00
35654;PMS1003;21773;50.010;19.972;2022-08-01T17:04:29;11.40;11.00;10.00
35654;PMS1003;21773;50.010;19.972;2022-08-01T17:07:33;12.60;11.60;11.00
35654;PMS1003;21773;50.010;19.972;2022-08-01T17:10:37;13.00;12.33;11.33
35654;PMS1003;21773;50.010;19.972;2022-08-01T17:13:41;14.00;13.00;13.00
35654;PMS1003;21773;50.010;19.972;2022-08-01T17:16:45;13.00;12.00;12.00
35654;PMS1003;21773;50.010;19.972;2022-08-01T17:19:51;14.00;13.50;12.50
35654;PMS1003;21773;50.010;19.972;2022-08-01T17:22:54;15.00;14.50;13.50